Latest Weather Observations for Kalgoorlie-Boulder

IDW60801

Issued at 4:32 pm WST Monday 31 August 2015 (issued every 30 minutes, with the page automatically refreshed every 10 minutes)

About weather observations | Map of weather stations | Latest weather observations for WA | Other Formats
Station Details ID: 012038 Name: KALGOORLIE-BOULDER AIRPORT Lat: -30.78 Lon: 121.45 Height: 365.3 m
Data from the previous 72 hours. | See also: Recent months at Kalgoorlie-Boulder
Date/Time
WST
Temp
°C
App
Temp
°C
Dew
Point
Rel
Hum
%
Delta-T
°C
Wind Press
QNH
hPa
Press
MSL
hPa
Rain
since 9 am
mm
Dir
 
Spd
km/h
Gust
km/h
Spd
kts
Gust
kts
31/04:30pm 18.6 11.3 2.6 34 7.5 W 30 44 16 24 1012.8 - 2.0
31/04:00pm 18.7 12.6 4.6 39 6.9 W 26 37 14 20 1012.7 - 2.0
31/03:30pm 19.4 12.9 4.8 38 7.2 W 28 41 15 22 1012.8 - 2.0
31/03:00pm 19.4 14.2 5.6 40 6.9 WNW 22 32 12 17 1013.0 1012.9 2.0
31/02:30pm 18.9 13.9 6.5 44 6.3 WNW 22 35 12 19 1013.3 - 2.0
31/02:00pm 17.9 15.4 9.7 58 4.4 NW 13 20 7 11 1013.9 - 2.0
31/01:30pm 16.6 14.7 10.5 67 3.3 WNW 11 17 6 9 1014.5 - 2.0
31/01:00pm 14.0 11.2 11.4 84 1.4 W 17 22 9 12 1015.1 - 2.0
31/12:47pm 13.6 8.5 10.6 82 1.6 W 28 39 15 21 1015.3 - 1.6
31/12:30pm 17.5 14.9 9.2 58 4.4 W 13 17 7 9 1015.1 - 0.6
31/12:00pm 17.8 17.1 10.2 61 4.1 NNW 4 9 2 5 1015.6 1015.5 0.6
31/11:30am 17.3 14.9 8.7 57 4.5 N 11 20 6 11 1016.5 - 0.0
31/11:00am 16.6 14.5 9.6 63 3.7 N 11 17 6 9 1017.2 - 0.0
31/10:30am 17.1 14.9 10.7 66 3.5 N 13 20 7 11 1017.8 - 0.0
31/10:00am 15.0 12.7 10.5 74 2.4 NNE 13 19 7 10 1018.2 - 0.0
31/09:30am 13.6 10.9 10.2 80 1.8 NNE 15 22 8 12 1018.7 - 0.0
31/09:00am 12.8 10.9 10.5 86 1.2 NE 11 17 6 9 1018.9 1018.8 0.6
31/08:30am 12.1 10.6 10.4 89 0.9 NNW 9 13 5 7 1019.6 - 0.6
31/08:00am 11.9 10.8 9.8 87 1.1 NE 6 9 3 5 1019.2 - 0.6
31/07:30am 11.7 9.9 9.6 87 1.1 NNE 9 13 5 7 1019.2 - 0.4
31/07:00am 12.1 8.9 8.3 77 1.9 NE 15 19 8 10 1018.6 - 0.0
31/06:30am 11.7 9.8 7.7 76 2.0 E 7 11 4 6 1018.5 - 0.0
31/06:12am 11.7 9.4 7.4 75 2.1 ENE 9 15 5 8 1018.6 - 0.0
31/06:00am 11.1 8.7 7.2 77 1.9 E 9 13 5 7 1018.2 1018.1 0.0
31/05:30am 10.6 8.2 7.1 79 1.7 SE 9 13 5 7 1018.4 - 0.0
31/05:00am 11.3 7.3 6.7 73 2.2 E 17 20 9 11 1017.9 - 0.0
31/04:30am 11.6 7.7 6.9 73 2.3 ESE 17 22 9 12 1018.2 - 0.0
31/04:00am 11.8 7.9 7.1 73 2.3 ESE 17 20 9 11 1018.1 - 0.0
31/03:30am 11.9 8.0 7.0 72 2.4 ESE 17 20 9 11 1018.3 - 0.0
31/03:00am 12.2 8.3 7.1 71 2.5 ESE 17 20 9 11 1018.6 1018.5 0.0
31/02:30am 12.3 8.8 7.2 71 2.5 SE 15 22 8 12 1018.7 - 0.0
31/02:00am 13.0 10.6 6.9 66 3.0 SSE 9 15 5 8 1019.2 - 0.0
31/01:30am 13.0 10.5 6.4 64 3.2 SSE 9 13 5 7 1019.2 - 0.0
31/01:00am 12.9 10.5 7.0 67 2.9 SE 9 9 5 5 1019.4 - 0.0
31/12:30am 13.2 10.3 6.4 63 3.3 S 11 13 6 7 1019.5 - 0.0
31/12:00am 13.2 10.8 7.1 66 3.0 SSE 9 13 5 7 1019.7 1019.7 0.0
 
Date/Time
WST
Temp
°C
App
Temp
°C
Dew
Point
Rel
Hum
%
Delta-T
°C
Wind Press
QNH
hPa
Press
MSL
hPa
Rain
since 9 am
mm
Dir
 
Spd
km/h
Gust
km/h
Spd
kts
Gust
kts
30/11:30pm 13.6 10.8 7.1 65 3.2 WSW 11 13 6 7 1020.0 - 0.0
30/11:00pm 12.6 11.9 7.1 69 2.7 CALM 0 0 0 0 1019.6 - 0.0
30/10:30pm 12.6 10.1 6.6 67 2.9 SSW 9 11 5 6 1019.8 - 0.0
30/10:00pm 12.5 9.7 6.8 68 2.8 SSW 11 13 6 7 1019.9 - 0.0
30/09:30pm 13.6 11.2 7.1 65 3.2 SSW 9 9 5 5 1020.0 - 0.0
30/09:00pm 14.3 12.0 7.3 63 3.5 SSW 9 11 5 6 1020.1 1020.1 0.0
30/08:30pm 14.9 12.2 7.3 60 3.8 S 11 13 6 7 1020.1 - 0.0
30/08:00pm 16.1 13.3 6.9 54 4.6 SSW 11 13 6 7 1019.9 - 0.0
30/07:30pm 16.4 13.6 6.8 53 4.8 SSW 11 15 6 8 1019.8 - 0.0
30/07:00pm 16.8 13.5 6.6 51 5.1 S 13 19 7 10 1019.5 - 0.0
30/06:30pm 17.3 13.8 7.0 50 5.2 S 15 20 8 11 1019.3 - 0.0
30/06:00pm 16.9 15.0 7.7 54 4.7 S 7 9 4 5 1018.9 1018.8 0.0
30/05:30pm 17.6 15.2 7.2 50 5.3 SSW 9 13 5 7 1018.7 - 0.0
30/05:00pm 17.9 14.4 7.4 50 5.4 SSW 15 20 8 11 1018.4 - 0.0
30/04:30pm 18.2 15.2 7.8 50 5.4 SSW 13 19 7 10 1018.3 - 0.0
30/04:00pm 18.4 14.6 7.5 49 5.6 SSW 17 24 9 13 1018.1 - 0.0
30/03:30pm 18.7 14.8 7.2 47 5.9 SSW 17 20 9 11 1017.9 - 0.0
30/03:00pm 18.7 14.4 7.2 47 5.9 SW 19 22 10 12 1017.9 1017.8 0.0
30/02:30pm 19.2 15.1 7.7 47 6.0 SW 19 32 10 17 1017.8 - 0.0
30/02:00pm 18.8 14.1 7.8 48 5.7 SW 22 26 12 14 1017.7 - 0.0
30/01:30pm 19.2 14.3 8.6 50 5.6 SW 24 33 13 18 1017.7 - 0.0
30/01:00pm 18.9 13.9 8.0 49 5.7 SSW 24 33 13 18 1017.4 - 0.0
30/12:30pm 19.6 15.2 7.5 45 6.3 SW 20 30 11 16 1017.4 - 0.0
30/12:00pm 19.8 15.6 7.5 45 6.4 W 19 30 10 16 1017.8 1017.7 0.0
30/11:30am 20.6 16.8 7.6 43 6.8 W 17 33 9 18 1018.2 - 0.0
30/11:00am 18.7 14.6 7.7 48 5.7 WSW 19 24 10 13 1018.6 - 0.0
30/10:30am 18.2 14.9 8.2 52 5.2 W 15 22 8 12 1018.6 - 0.0
30/10:00am 17.3 12.8 8.5 56 4.6 SW 22 32 12 17 1018.8 - 0.0
30/09:30am 17.5 13.5 9.0 57 4.5 SW 20 30 11 16 1018.7 - 0.0
30/09:00am 17.1 12.3 8.9 58 4.3 SW 24 33 13 18 1018.5 1018.4 0.0
30/08:30am 16.6 12.1 8.7 59 4.1 SW 22 30 12 16 1018.2 - 0.0
30/08:00am 15.5 12.2 9.6 68 3.1 WSW 17 26 9 14 1017.8 - 0.0
30/07:30am 13.3 10.8 9.7 79 1.9 WSW 13 20 7 11 1017.6 - 0.0
30/07:00am 11.4 9.4 8.6 83 1.4 W 9 13 5 7 1017.2 - 0.0
30/06:30am 10.2 8.4 7.1 81 1.5 WNW 6 7 3 4 1016.8 - 0.0
30/06:00am 10.6 8.3 7.3 80 1.6 W 9 11 5 6 1016.4 1016.3 0.0
30/05:30am 10.9 8.3 7.9 82 1.5 W 11 15 6 8 1015.9 - 0.0
30/05:00am 11.3 8.6 7.2 76 2.0 W 11 13 6 7 1015.5 - 0.0
30/04:30am 12.1 9.8 7.4 73 2.3 W 9 11 5 6 1015.1 - 0.0
30/04:00am 12.7 10.5 7.7 71 2.5 W 9 11 5 6 1015.0 - 0.0
30/03:30am 13.0 10.8 7.8 70 2.6 WSW 9 11 5 6 1014.5 - 0.0
30/03:00am 14.4 11.3 7.4 63 3.5 WSW 13 17 7 9 1014.4 1014.4 0.0
30/02:30am 14.8 10.9 7.0 59 3.9 WSW 17 20 9 11 1014.4 - 0.0
30/02:00am 14.8 11.1 6.5 57 4.1 WSW 15 22 8 12 1014.3 - 0.0
30/01:30am 14.6 11.3 6.2 57 4.1 SW 13 17 7 9 1014.2 - 0.0
30/01:00am 15.4 11.3 6.0 53 4.6 WSW 17 20 9 11 1014.2 - 0.0
30/12:30am 15.2 11.8 5.8 53 4.6 SW 13 17 7 9 1014.3 - 0.0
30/12:00am 15.6 11.7 5.5 51 4.9 SW 15 17 8 9 1014.3 1014.3 0.0
 
Date/Time
WST
Temp
°C
App
Temp
°C
Dew
Point
Rel
Hum
%
Delta-T
°C
Wind Press
QNH
hPa
Press
MSL
hPa
Rain
since 9 am
mm
Dir
 
Spd
km/h
Gust
km/h
Spd
kts
Gust
kts
29/11:30pm 15.2 12.2 5.8 53 4.6 SW 11 15 6 8 1014.2 - 0.0
29/11:00pm 16.2 12.8 5.8 50 5.1 SW 13 17 7 9 1014.2 - 0.0
29/10:30pm 17.8 13.6 5.5 44 6.1 SW 17 22 9 12 1014.2 - 0.0
29/10:00pm 18.0 13.6 4.9 42 6.4 WSW 17 22 9 12 1014.3 - 0.0
29/09:30pm 17.9 14.3 5.1 43 6.3 SW 13 15 7 8 1014.3 - 0.0
29/09:00pm 18.3 15.5 5.1 41 6.5 WNW 9 13 5 7 1014.4 1014.4 0.0
29/08:30pm 19.7 15.7 5.0 38 7.3 WSW 15 26 8 14 1014.1 - 0.0
29/08:00pm 19.9 17.2 5.6 39 7.2 NNE 9 15 5 8 1013.5 - 0.0
29/07:30pm 21.0 17.3 4.7 34 8.1 ENE 13 17 7 9 1013.1 - 0.0
29/07:00pm 20.8 19.6 6.4 39 7.4 NNE 2 6 1 3 1012.8 - 0.0
29/06:30pm 21.7 18.0 4.4 32 8.6 NE 13 17 7 9 1012.5 - 0.0
29/06:00pm 21.7 18.8 4.7 33 8.5 NE 9 13 5 7 1012.2 1012.1 0.0
29/05:30pm 22.6 19.3 4.4 30 9.1 NNE 11 17 6 9 1011.9 - 0.0
29/05:00pm 23.5 18.3 3.5 27 9.9 NE 20 28 11 15 1011.8 - 0.0
29/04:30pm 24.7 19.6 3.1 24 10.7 NNE 19 26 10 14 1011.8 - 0.0
29/04:00pm 25.1 19.3 2.2 22 11.2 N 22 32 12 17 1011.9 - 0.0
29/03:30pm 25.5 18.4 1.2 20 11.7 N 28 33 15 18 1011.9 - 0.0
29/03:00pm 25.9 20.1 2.4 21 11.6 N 22 37 12 20 1012.0 1011.9 0.0
29/02:30pm 26.0 19.4 1.9 21 11.8 N 26 37 14 20 1012.0 - 0.0
29/02:00pm 25.0 17.6 2.0 22 11.2 NNE 30 41 16 22 1012.2 - 0.0
29/01:30pm 25.2 17.9 2.4 22 11.2 NNE 30 43 16 23 1012.6 - 0.0
29/01:00pm 25.2 18.4 3.1 24 11.0 NE 28 41 15 22 1013.0 - 0.0
29/12:30pm 22.2 15.1 3.4 29 9.2 NE 30 37 16 20 1013.6 - 0.0
29/12:00pm 21.3 15.0 4.0 32 8.5 NE 26 39 14 21 1014.2 1014.1 0.0
29/11:30am 22.3 14.8 3.6 29 9.2 NNE 32 56 17 30 1014.2 - 0.0
29/11:25am 22.3 15.4 2.3 26 9.6 N 28 56 15 30 1014.1 - 0.0
29/11:00am 21.2 15.2 3.6 31 8.6 NNE 24 41 13 22 1015.3 - 0.0
29/10:30am 21.9 16.7 3.8 30 8.9 N 20 33 11 18 1016.0 - 0.0
29/10:00am 19.8 15.5 3.4 33 7.9 N 15 20 8 11 1016.1 - 0.0
29/09:30am 19.4 14.4 1.4 30 8.3 N 17 19 9 10 1016.2 - 0.0
29/09:00am 18.5 12.9 -0.3 28 8.3 N 19 28 10 15 1016.1 1016.0 0.0
29/08:30am 18.2 13.6 -1.2 27 8.4 NNE 13 20 7 11 1016.4 - 0.0
29/08:00am 16.1 10.2 -2.6 27 7.7 NNE 19 26 10 14 1016.5 - 0.0
29/07:30am 14.9 10.9 -2.5 30 7.1 NNE 9 19 5 10 1016.6 - 0.0
29/07:00am 13.8 10.2 -2.2 33 6.5 N 7 9 4 5 1016.0 - 0.0
29/06:30am 13.2 9.2 -2.5 33 6.3 NNE 9 13 5 7 1015.6 - 0.0
29/06:00am 12.9 9.3 -1.9 36 6.0 NE 7 11 4 6 1015.5 1015.4 0.0
29/05:30am 13.2 9.2 -2.1 34 6.2 NE 9 17 5 9 1015.3 - 0.0
29/05:00am 13.7 9.3 -2.8 32 6.6 NE 11 17 6 9 1015.3 - 0.0
29/04:30am 13.2 8.8 -2.1 34 6.2 NNE 11 17 6 9 1015.6 - 0.0
29/04:00am 13.9 9.5 -2.8 31 6.7 NNE 11 15 6 8 1015.9 - 0.0
29/03:30am 14.4 10.3 -2.7 30 6.9 NNE 9 15 5 8 1015.9 - 0.0
29/03:00am 14.8 10.0 -2.7 30 7.1 NE 13 20 7 11 1015.8 1015.7 0.0
29/02:30am 15.2 10.0 -3.1 28 7.4 NE 15 24 8 13 1016.1 - 0.0
29/02:00am 15.3 10.5 -2.5 29 7.3 NNE 13 20 7 11 1016.5 - 0.0
29/01:30am 15.6 10.0 -2.8 28 7.5 NE 17 24 9 13 1016.7 - 0.0
29/01:00am 16.2 10.2 -2.8 27 7.8 NE 19 28 10 15 1016.7 - 0.0
29/12:30am 16.5 10.5 -3.0 26 8.0 NNE 19 32 10 17 1016.8 - 0.0
29/12:00am 16.7 10.6 -2.2 27 7.9 NE 20 32 11 17 1016.9 1016.9 0.0
 
Date/Time
WST
Temp
°C
App
Temp
°C
Dew
Point
Rel
Hum
%
Delta-T
°C
Wind Press
QNH
hPa
Press
MSL
hPa
Rain
since 9 am
mm
Dir
 
Spd
km/h
Gust
km/h
Spd
kts
Gust
kts
28/11:30pm 17.1 11.0 -2.2 26 8.1 NNE 20 28 11 15 1017.2 - 0.0
28/11:00pm 16.9 11.5 -1.5 28 7.8 NE 17 24 9 13 1017.4 - 0.0
28/10:30pm 17.5 12.5 -1.1 28 8.0 NE 15 22 8 12 1017.6 - 0.0
28/10:00pm 17.4 12.8 -0.9 29 7.9 NE 13 19 7 10 1017.6 - 0.0
28/09:30pm 17.6 13.5 -0.5 29 7.9 NNE 11 13 6 7 1017.6 - 0.0
28/09:00pm 18.0 13.8 -0.9 27 8.2 NNE 11 15 6 8 1017.4 1017.4 0.0
28/08:30pm 18.0 13.8 -0.9 27 8.2 NNE 11 15 6 8 1017.4 - 0.0
28/08:00pm 18.3 14.5 -1.0 27 8.4 NNE 9 17 5 9 1017.3 - 0.0
28/07:30pm 18.7 14.5 -0.6 27 8.5 NNE 11 15 6 8 1017.0 - 0.0
28/07:00pm 19.4 16.0 -0.4 26 8.8 NNE 7 11 4 6 1016.9 - 0.0
28/06:30pm 20.1 16.3 -0.5 25 9.2 NNE 9 11 5 6 1016.6 - 0.0
28/06:00pm 21.1 16.9 -1.2 22 9.9 NNE 11 15 6 8 1016.4 1016.3 0.0
28/05:30pm 22.1 17.0 -1.9 20 10.6 N 15 19 8 10 1016.1 - 0.0
28/05:00pm 23.3 17.7 -2.6 17 11.4 NNE 17 24 9 13 1015.9 - 0.0

Other Formats:

Comma delimited format used in spreadsheet applications
http://www.bom.gov.au/fwo/IDW60801/IDW60801.94637.axf

JavaScript Object Notation format (JSON) in row-major order
http://www.bom.gov.au/fwo/IDW60801/IDW60801.94637.json